Time;durP1;ratioP1;P1;durP2;ratioP2;P2;SDS_P1;SDS_P2;PMS_P1;PMS_P2;Temp;Humidity;BMP_temperature;BMP_pressure;BME280_temperature;BME280_humidity;BME280_pressure;Samples;Min_cycle;Max_cycle;Signal;HPM_P1;HPM_P2
2022/02/28 00:00:18;;;;;;;20.70;18.50;;;2.70;99.90;;;;;;5012350;28;20494;-68
2022/02/28 00:02:46;;;;;;;20.30;18.70;;;2.60;99.90;;;;;;5036058;28;20770;-68
2022/02/28 00:05:13;;;;;;;19.63;18.33;;;2.60;99.90;;;;;;5034548;28;20476;-68
2022/02/28 00:07:40;;;;;;;18.93;17.53;;;2.50;99.90;;;;;;5034004;28;20485;-68
2022/02/28 00:10:09;;;;;;;18.70;17.43;;;2.50;99.90;;;;;;5035886;28;20490;-68
2022/02/28 00:12:38;;;;;;;19.37;18.03;;;2.50;99.90;;;;;;5039515;28;20475;-70
2022/02/28 00:15:06;;;;;;;20.07;18.30;;;2.50;99.90;;;;;;5037035;28;20992;-68
2022/02/28 00:17:33;;;;;;;21.67;19.27;;;2.40;99.90;;;;;;5039239;28;20464;-68
2022/02/28 00:20:00;;;;;;;22.33;19.20;;;2.30;99.90;;;;;;5037847;28;20841;-68
2022/02/28 00:22:28;;;;;;;21.53;19.50;;;2.20;99.90;;;;;;5037844;28;20479;-68
2022/02/28 00:24:55;;;;;;;19.40;18.10;;;2.10;99.90;;;;;;5033849;28;21120;-68
2022/02/28 00:27:22;;;;;;;20.27;18.80;;;2.10;99.90;;;;;;5040168;28;20569;-68
2022/02/28 00:29:50;;;;;;;20.27;18.43;;;1.90;99.90;;;;;;5041999;28;20490;-68
2022/02/28 00:32:17;;;;;;;20.03;18.53;;;1.90;99.90;;;;;;5038596;28;20486;-68
2022/02/28 00:34:44;;;;;;;21.53;19.53;;;1.70;99.90;;;;;;5037620;28;20491;-68
2022/02/28 00:37:11;;;;;;;18.93;17.70;;;1.70;99.90;;;;;;5042086;28;20490;-68
2022/02/28 00:39:38;;;;;;;18.80;17.60;;;1.60;99.90;;;;;;5035823;28;20495;-68
2022/02/28 00:42:05;;;;;;;20.70;19.10;;;1.70;99.90;;;;;;5039469;28;20840;-68
2022/02/28 00:44:32;;;;;;;20.23;18.80;;;1.70;99.90;;;;;;5032814;28;20455;-68
2022/02/28 00:47:01;;;;;;;20.80;19.20;;;1.70;99.90;;;;;;5039934;28;20557;-68
2022/02/28 00:49:28;;;;;;;20.90;19.20;;;1.60;99.90;;;;;;5034653;28;20495;-68
2022/02/28 00:51:55;;;;;;;19.33;17.90;;;1.60;99.90;;;;;;5042078;28;20947;-68
2022/02/28 00:54:22;;;;;;;21.67;19.47;;;1.60;99.90;;;;;;5035216;28;20534;-68
2022/02/28 00:56:49;;;;;;;19.90;18.30;;;1.60;99.90;;;;;;5039172;28;20471;-68
2022/02/28 00:59:16;;;;;;;20.60;18.80;;;1.60;99.90;;;;;;5038403;28;20515;-68
2022/02/28 01:01:43;;;;;;;20.57;18.80;;;1.60;99.90;;;;;;5041111;28;20462;-68
2022/02/28 01:04:11;;;;;;;19.97;18.57;;;1.60;99.90;;;;;;5033570;28;20479;-68
2022/02/28 01:06:38;;;;;;;19.03;17.80;;;1.60;99.90;;;;;;5039778;28;20498;-68
2022/02/28 01:09:05;;;;;;;19.83;18.20;;;1.60;99.90;;;;;;5040692;28;20474;-69
2022/02/28 01:11:33;;;;;;;20.13;18.53;;;1.50;99.90;;;;;;5033461;28;20468;-69
2022/02/28 01:14:00;;;;;;;18.83;17.57;;;1.60;99.90;;;;;;5036517;28;20479;-68
2022/02/28 01:16:28;;;;;;;19.93;18.57;;;1.60;99.90;;;;;;5041226;28;20462;-68
2022/02/28 01:18:55;;;;;;;19.93;18.63;;;1.50;99.90;;;;;;5035914;28;20464;-68
2022/02/28 01:21:24;;;;;;;20.50;18.83;;;1.50;99.90;;;;;;5036307;28;20499;-68
2022/02/28 01:23:50;;;;;;;20.17;18.73;;;1.50;99.90;;;;;;5040989;28;21031;-68
2022/02/28 01:26:18;;;;;;;21.30;19.33;;;1.40;99.90;;;;;;5031253;28;20472;-68
2022/02/28 01:28:46;;;;;;;20.47;19.00;;;1.30;99.90;;;;;;5041236;28;20486;-68
2022/02/28 01:31:13;;;;;;;20.23;18.63;;;1.20;99.90;;;;;;5037889;28;20952;-68
2022/02/28 01:33:40;;;;;;;20.07;18.67;;;1.20;99.90;;;;;;5042438;28;20477;-68
2022/02/28 01:36:07;;;;;;;20.50;18.50;;;1.30;99.90;;;;;;5035724;28;20981;-69
2022/02/28 01:38:37;;;;;;;20.30;18.80;;;1.30;99.90;;;;;;5036990;28;20465;-68
2022/02/28 01:41:04;;;;;;;19.90;18.33;;;1.20;99.90;;;;;;5035737;28;20571;-68
2022/02/28 01:43:31;;;;;;;22.60;19.23;;;1.30;99.90;;;;;;5039947;28;20521;-68
2022/02/28 01:45:58;;;;;;;19.27;17.93;;;1.20;99.90;;;;;;5041869;28;20470;-68
2022/02/28 01:48:24;;;;;;;20.17;18.70;;;1.20;99.90;;;;;;5041183;28;20490;-68
2022/02/28 01:50:51;;;;;;;22.00;19.33;;;1.20;99.90;;;;;;5036364;28;20469;-68
2022/02/28 01:53:21;;;;;;;21.37;19.27;;;1.30;99.90;;;;;;5037305;28;20474;-71
2022/02/28 01:55:50;;;;;;;20.30;19.00;;;1.40;99.90;;;;;;5033290;28;20844;-68
2022/02/28 01:58:16;;;;;;;19.33;18.03;;;1.50;99.90;;;;;;5038677;28;20471;-68
2022/02/28 02:00:43;;;;;;;20.00;18.40;;;1.60;99.90;;;;;;5039762;28;20488;-71
2022/02/28 02:03:11;;;;;;;19.87;18.57;;;1.60;99.90;;;;;;5043343;28;20458;-71
2022/02/28 02:05:38;;;;;;;19.87;18.13;;;1.60;99.90;;;;;;5035492;28;20834;-68
2022/02/28 02:08:07;;;;;;;19.67;18.27;;;1.70;99.90;;;;;;5040269;28;20978;-69
2022/02/28 02:10:35;;;;;;;19.47;18.07;;;1.70;99.90;;;;;;5035206;28;20507;-68
2022/02/28 02:13:03;;;;;;;21.67;18.67;;;1.60;99.90;;;;;;5039357;28;20466;-68
2022/02/28 02:15:30;;;;;;;20.90;19.27;;;1.60;99.90;;;;;;5042125;28;20455;-68
2022/02/28 02:17:59;;;;;;;20.60;18.93;;;1.60;99.90;;;;;;5038709;28;20525;-68
2022/02/28 02:20:36;;;;;;;19.63;18.33;;;1.60;99.90;;;;;;5040129;28;20611;-68
2022/02/28 02:23:04;;;;;;;19.93;18.63;;;1.70;99.90;;;;;;5038518;28;20566;-68
2022/02/28 02:25:32;;;;;;;18.77;17.60;;;1.70;99.90;;;;;;5039993;28;20474;-68
2022/02/28 02:28:00;;;;;;;19.60;18.33;;;1.80;99.90;;;;;;5042071;28;20487;-68
2022/02/28 02:30:28;;;;;;;19.60;18.30;;;1.70;99.90;;;;;;5039362;28;20472;-68
2022/02/28 02:32:55;;;;;;;20.53;18.87;;;1.70;99.90;;;;;;5039978;28;20475;-71
2022/02/28 02:35:22;;;;;;;20.17;18.77;;;1.70;99.90;;;;;;5039870;28;20474;-68
2022/02/28 02:37:51;;;;;;;20.10;18.80;;;1.60;99.90;;;;;;5041627;28;20471;-68
2022/02/28 02:40:18;;;;;;;19.77;18.37;;;1.50;99.90;;;;;;5045310;28;20486;-68
2022/02/28 02:42:45;;;;;;;19.93;18.50;;;1.50;99.90;;;;;;5035715;28;20490;-68
2022/02/28 02:45:12;;;;;;;21.20;19.37;;;1.60;99.90;;;;;;5036598;28;20467;-70
2022/02/28 02:47:39;;;;;;;20.77;19.17;;;1.60;99.90;;;;;;5041844;28;20467;-71
2022/02/28 02:50:07;;;;;;;20.30;18.73;;;1.60;99.90;;;;;;5043437;28;20463;-68
2022/02/28 02:52:34;;;;;;;20.00;18.70;;;1.50;99.90;;;;;;5049737;28;20505;-68
2022/02/28 02:55:03;;;;;;;20.40;18.70;;;1.50;99.90;;;;;;5037781;28;20528;-71
2022/02/28 02:57:30;;;;;;;19.87;18.13;;;1.50;99.90;;;;;;5034063;28;20496;-71
2022/02/28 02:59:57;;;;;;;20.90;19.40;;;1.60;99.90;;;;;;5031908;28;20483;-68
2022/02/28 03:02:23;;;;;;;20.90;19.30;;;1.50;99.90;;;;;;5039643;28;20474;-71
2022/02/28 03:04:50;;;;;;;19.83;18.53;;;1.50;99.90;;;;;;5037765;28;20964;-72
2022/02/28 03:07:18;;;;;;;21.37;19.77;;;1.40;99.90;;;;;;5038440;28;20474;-73
2022/02/28 03:09:46;;;;;;;21.40;19.30;;;1.30;99.90;;;;;;5040540;28;20486;-70
2022/02/28 03:12:15;;;;;;;20.60;19.10;;;1.20;99.90;;;;;;5039728;28;20474;-70
2022/02/28 03:14:42;;;;;;;20.10;18.87;;;1.10;99.90;;;;;;5041531;28;20965;-69
2022/02/28 03:17:24;;;;;;;20.50;18.80;;;1.20;99.90;;;;;;5044888;28;20462;-70
2022/02/28 03:19:51;;;;;;;20.70;19.20;;;1.20;99.90;;;;;;5039860;28;20569;-70
2022/02/28 03:22:17;;;;;;;21.60;19.80;;;1.10;99.90;;;;;;5038675;28;20501;-69
2022/02/28 03:24:44;;;;;;;22.13;20.10;;;1.10;99.90;;;;;;5041787;28;20463;-71
2022/02/28 03:27:12;;;;;;;22.10;19.97;;;1.00;99.90;;;;;;5035765;28;20449;-70
2022/02/28 03:29:40;;;;;;;21.97;20.03;;;1.00;99.90;;;;;;5041839;28;20478;-70
2022/02/28 03:32:07;;;;;;;21.93;19.90;;;1.00;99.90;;;;;;5039267;28;20464;-70
2022/02/28 03:34:34;;;;;;;21.40;19.50;;;0.90;99.90;;;;;;5039195;28;20846;-70
2022/02/28 03:37:01;;;;;;;21.50;19.90;;;0.90;99.90;;;;;;5042472;28;20471;-68
2022/02/28 03:39:28;;;;;;;22.70;20.40;;;0.90;99.90;;;;;;5040494;28;21115;-72
2022/02/28 03:41:55;;;;;;;22.93;20.70;;;0.90;99.90;;;;;;5045041;28;20504;-69
2022/02/28 03:44:23;;;;;;;21.80;19.93;;;0.80;99.90;;;;;;5037559;28;20471;-70
2022/02/28 03:46:52;;;;;;;22.60;20.60;;;0.70;99.90;;;;;;5038229;28;20466;-70
2022/02/28 03:49:20;;;;;;;21.87;20.13;;;0.70;99.90;;;;;;5040313;28;20492;-69
2022/02/28 03:51:48;;;;;;;22.70;20.47;;;0.70;99.90;;;;;;5041027;28;20822;-71
2022/02/28 03:54:15;;;;;;;22.87;21.03;;;0.60;99.90;;;;;;5043987;28;20502;-69
2022/02/28 03:56:43;;;;;;;22.73;20.60;;;0.50;99.90;;;;;;5040861;28;20504;-71
2022/02/28 03:59:12;;;;;;;23.60;21.50;;;0.50;99.90;;;;;;5041737;28;20467;-70
2022/02/28 04:01:39;;;;;;;22.67;20.57;;;0.50;99.90;;;;;;5038855;28;20498;-71
2022/02/28 04:04:08;;;;;;;22.80;20.83;;;0.50;99.90;;;;;;5037515;28;20963;-71
2022/02/28 04:06:36;;;;;;;23.80;22.00;;;0.40;99.90;;;;;;5039696;28;22554;-71
2022/02/28 04:09:05;;;;;;;23.00;20.97;;;0.30;99.90;;;;;;5042514;28;20496;-71
2022/02/28 04:11:33;;;;;;;26.43;20.90;;;0.30;99.90;;;;;;5041244;28;20461;-71
2022/02/28 04:14:01;;;;;;;23.70;21.50;;;0.20;99.90;;;;;;5038917;28;20496;-70
2022/02/28 04:16:29;;;;;;;24.80;21.40;;;0.10;99.90;;;;;;5042909;28;20460;-69
2022/02/28 04:18:56;;;;;;;23.90;21.60;;;0.00;99.90;;;;;;5040373;28;20460;-70
2022/02/28 04:21:25;;;;;;;23.30;21.03;;;0.00;99.90;;;;;;5037124;28;20500;-71
2022/02/28 04:23:52;;;;;;;23.07;21.20;;;-0.10;99.90;;;;;;5044668;28;21165;-69
2022/02/28 04:26:20;;;;;;;23.93;21.57;;;-0.10;99.90;;;;;;5041390;28;20472;-71
2022/02/28 04:28:47;;;;;;;24.37;21.60;;;-0.10;99.90;;;;;;5040043;28;20985;-71
2022/02/28 04:31:14;;;;;;;23.77;21.90;;;-0.10;99.90;;;;;;5040435;28;20461;-70
2022/02/28 04:33:42;;;;;;;31.80;22.53;;;-0.20;99.90;;;;;;5037438;28;20458;-70
2022/02/28 04:36:10;;;;;;;22.57;20.87;;;-0.10;99.90;;;;;;5041392;28;20466;-69
2022/02/28 04:38:38;;;;;;;31.43;21.70;;;-0.10;99.90;;;;;;5039547;28;20468;-69
2022/02/28 04:41:06;;;;;;;24.87;20.90;;;0.00;99.90;;;;;;5042606;28;20482;-70
2022/02/28 04:43:32;;;;;;;22.90;21.00;;;0.00;99.90;;;;;;5039294;28;20467;-71
2022/02/28 04:46:00;;;;;;;29.40;20.73;;;0.00;99.90;;;;;;5037509;28;20457;-69
2022/02/28 04:48:27;;;;;;;22.53;20.83;;;0.00;99.90;;;;;;5040877;28;20850;-70
2022/02/28 04:50:55;;;;;;;23.37;21.10;;;0.00;99.90;;;;;;5039962;28;20862;-71
2022/02/28 04:53:38;;;;;;;25.90;22.13;;;-0.10;99.90;;;;;;5039291;28;20475;-71
2022/02/28 04:56:05;;;;;;;23.20;21.30;;;-0.10;99.90;;;;;;5041844;28;20919;-70
2022/02/28 04:58:33;;;;;;;25.53;23.00;;;-0.10;99.90;;;;;;5039237;28;20924;-71
2022/02/28 05:01:00;;;;;;;24.47;21.60;;;-0.10;99.90;;;;;;5034980;28;20500;-69
2022/02/28 05:03:27;;;;;;;25.63;22.90;;;-0.10;99.90;;;;;;5007957;28;20476;-71
2022/02/28 05:05:54;;;;;;;27.47;22.00;;;-0.10;99.90;;;;;;5007164;28;20490;-71
2022/02/28 05:08:21;;;;;;;24.53;22.10;;;-0.10;99.90;;;;;;5006960;28;20473;-70
2022/02/28 05:10:49;;;;;;;23.77;21.37;;;0.00;99.90;;;;;;5008083;28;20588;-70
2022/02/28 05:13:16;;;;;;;23.87;21.17;;;0.10;99.90;;;;;;5007582;28;20820;-68
2022/02/28 05:15:43;;;;;;;22.77;20.80;;;0.20;99.90;;;;;;5008871;28;22488;-70
2022/02/28 05:18:10;;;;;;;23.33;21.43;;;0.30;99.90;;;;;;5008504;28;21001;-71
2022/02/28 05:20:37;;;;;;;22.47;20.67;;;0.30;99.90;;;;;;5009139;28;20888;-69
2022/02/28 05:23:04;;;;;;;23.20;21.23;;;0.30;99.90;;;;;;5009421;28;20669;-69
2022/02/28 05:25:31;;;;;;;21.97;20.10;;;0.40;99.90;;;;;;5007576;28;20995;-72
2022/02/28 05:27:59;;;;;;;24.07;22.17;;;0.50;99.90;;;;;;5007871;28;20836;-70
2022/02/28 05:30:26;;;;;;;22.83;20.73;;;0.50;99.90;;;;;;5008790;28;20463;-71
2022/02/28 05:32:53;;;;;;;22.13;20.33;;;0.50;99.90;;;;;;5008739;28;21151;-70
2022/02/28 05:35:20;;;;;;;23.30;21.10;;;0.50;99.90;;;;;;5008900;28;20468;-70
2022/02/28 05:37:47;;;;;;;27.63;22.20;;;0.50;99.90;;;;;;5008458;28;20820;-70
2022/02/28 05:40:15;;;;;;;23.70;21.57;;;0.40;99.90;;;;;;5009034;28;20460;-72
2022/02/28 05:42:42;;;;;;;23.20;21.10;;;0.50;99.90;;;;;;5009672;28;21008;-69
2022/02/28 05:45:11;;;;;;;23.23;21.30;;;0.40;99.90;;;;;;5009511;28;20466;-69
2022/02/28 05:47:42;;;;;;;22.80;20.90;;;0.40;99.90;;;;;;5009329;28;20482;-69
2022/02/28 05:50:09;;;;;;;23.00;20.90;;;0.40;99.90;;;;;;5012342;28;20867;-69
2022/02/28 05:52:36;;;;;;;24.90;21.77;;;0.40;99.90;;;;;;5012588;28;20474;-71
2022/02/28 05:55:03;;;;;;;23.60;21.20;;;0.50;99.90;;;;;;5012860;28;20473;-70
2022/02/28 05:57:35;;;;;;;28.80;22.13;;;0.40;99.90;;;;;;5013561;28;20478;-70
2022/02/28 06:00:02;;;;;;;23.73;21.57;;;0.40;99.90;;;;;;5012765;28;20459;-70
2022/02/28 06:02:30;;;;;;;23.37;21.60;;;0.30;99.90;;;;;;5020703;28;20583;-70
2022/02/28 06:04:57;;;;;;;22.77;20.40;;;0.30;99.90;;;;;;5013780;28;20467;-70
2022/02/28 06:07:23;;;;;;;23.93;22.03;;;0.20;99.90;;;;;;5014817;28;20470;-69
2022/02/28 06:09:51;;;;;;;23.43;21.53;;;0.20;99.90;;;;;;5014213;28;20621;-71
2022/02/28 06:12:17;;;;;;;23.00;21.00;;;0.30;99.90;;;;;;5013262;28;20461;-70
2022/02/28 06:14:44;;;;;;;22.87;20.90;;;0.40;99.90;;;;;;5013804;28;20796;-69
2022/02/28 06:17:11;;;;;;;24.67;22.40;;;0.40;99.90;;;;;;5011729;28;20482;-70
2022/02/28 06:19:40;;;;;;;24.13;22.13;;;0.40;99.90;;;;;;5012521;28;20462;-68
2022/02/28 06:22:07;;;;;;;23.83;22.00;;;0.50;99.90;;;;;;5010390;28;20572;-69
2022/02/28 06:24:33;;;;;;;25.70;21.90;;;0.50;99.90;;;;;;5010289;28;20461;-70
2022/02/28 06:27:01;;;;;;;23.40;21.53;;;0.60;99.90;;;;;;5012719;28;20470;-69
2022/02/28 06:29:28;;;;;;;24.80;22.33;;;0.70;99.90;;;;;;5013234;28;20462;-71
2022/02/28 06:31:55;;;;;;;24.43;22.13;;;0.60;99.90;;;;;;5011090;28;20476;-70
2022/02/28 06:34:22;;;;;;;24.00;21.90;;;0.70;99.90;;;;;;5012145;28;21054;-70
2022/02/28 06:36:50;;;;;;;24.57;22.50;;;0.70;99.90;;;;;;5012836;28;21052;-71
2022/02/28 06:39:17;;;;;;;22.23;20.53;;;0.70;99.90;;;;;;5012868;28;20968;-69
2022/02/28 06:41:44;;;;;;;24.67;22.60;;;0.70;99.90;;;;;;5012338;28;20488;-73
2022/02/28 06:44:11;;;;;;;23.93;21.83;;;0.70;99.90;;;;;;5012431;28;20469;-70
2022/02/28 06:46:38;;;;;;;23.00;21.00;;;0.80;99.90;;;;;;5012559;28;20469;-70
2022/02/28 06:49:04;;;;;;;24.23;21.67;;;0.80;99.90;;;;;;5011231;28;20491;-71
2022/02/28 06:51:31;;;;;;;23.87;21.90;;;0.80;99.90;;;;;;5009796;28;20476;-70
2022/02/28 06:53:59;;;;;;;22.70;20.83;;;0.80;99.90;;;;;;5010731;28;21779;-72
2022/02/28 06:56:26;;;;;;;23.97;21.60;;;0.80;99.90;;;;;;5010851;28;21019;-71
2022/02/28 06:58:53;;;;;;;24.40;22.23;;;0.90;99.90;;;;;;5009097;28;21286;-70
2022/02/28 07:01:20;;;;;;;25.00;22.37;;;1.00;99.90;;;;;;5008639;28;20494;-69
2022/02/28 07:03:47;;;;;;;23.17;21.27;;;1.00;99.90;;;;;;5008889;28;20638;-72
2022/02/28 07:06:20;;;;;;;23.40;21.50;;;1.10;99.90;;;;;;5007675;28;20483;-70
2022/02/28 07:08:48;;;;;;;23.80;21.80;;;1.20;99.90;;;;;;5024906;28;20609;-70
2022/02/28 07:11:16;;;;;;;28.97;26.17;;;1.20;99.90;;;;;;5023881;28;20518;-71
2022/02/28 07:13:43;;;;;;;25.70;23.17;;;1.30;99.90;;;;;;5003982;28;20470;-73
2022/02/28 07:16:10;;;;;;;24.40;22.40;;;1.30;99.90;;;;;;5004352;28;20474;-69
2022/02/28 07:18:37;;;;;;;23.67;21.17;;;1.40;99.90;;;;;;5004322;28;21067;-71
2022/02/28 07:21:04;;;;;;;24.40;22.27;;;1.50;99.90;;;;;;5005449;28;20474;-70
2022/02/28 07:23:31;;;;;;;23.40;21.10;;;1.50;99.90;;;;;;5004042;28;20490;-72
2022/02/28 07:25:58;;;;;;;23.07;21.20;;;1.60;99.90;;;;;;5004634;28;20457;-69
2022/02/28 07:28:26;;;;;;;23.50;21.50;;;1.70;99.90;;;;;;5004529;28;20460;-71
2022/02/28 07:30:53;;;;;;;26.67;20.97;;;1.70;99.90;;;;;;5005039;28;20529;-72
2022/02/28 07:33:20;;;;;;;22.70;20.50;;;1.80;99.90;;;;;;5004759;28;20464;-74
2022/02/28 07:35:47;;;;;;;23.63;21.60;;;1.90;99.90;;;;;;5017837;28;20454;-73
2022/02/28 07:38:14;;;;;;;23.83;21.53;;;1.90;99.90;;;;;;5033904;28;20472;-71
2022/02/28 07:40:41;;;;;;;23.50;21.60;;;1.90;99.90;;;;;;5012503;28;20765;-72
2022/02/28 07:43:08;;;;;;;23.03;20.90;;;2.00;99.90;;;;;;5005452;28;20530;-70
2022/02/28 07:45:36;;;;;;;23.20;21.30;;;2.10;99.90;;;;;;5001633;28;20476;-70
2022/02/28 07:48:03;;;;;;;21.30;19.40;;;2.20;99.90;;;;;;5006566;28;20492;-72
2022/02/28 07:50:30;;;;;;;22.53;20.77;;;2.30;99.90;;;;;;5006844;28;20474;-72
2022/02/28 07:52:57;;;;;;;22.93;21.13;;;2.30;99.90;;;;;;5008707;28;20448;-70
2022/02/28 07:55:24;;;;;;;23.90;21.87;;;2.40;99.90;;;;;;5008904;28;20479;-70
2022/02/28 07:57:51;;;;;;;23.20;20.90;;;2.40;99.90;;;;;;5005511;28;20538;-73
2022/02/28 08:00:18;;;;;;;24.23;21.70;;;2.40;99.90;;;;;;5006194;28;20467;-72
2022/02/28 08:02:46;;;;;;;23.17;21.27;;;2.50;99.90;;;;;;5013762;28;21425;-72
2022/02/28 08:05:13;;;;;;;23.50;21.40;;;2.60;99.90;;;;;;5021678;28;21147;-71
2022/02/28 08:07:41;;;;;;;23.77;21.27;;;2.60;99.90;;;;;;5033844;28;20460;-74
2022/02/28 08:10:09;;;;;;;24.00;22.00;;;2.80;99.90;;;;;;5028991;28;20471;-70
2022/02/28 08:12:35;;;;;;;24.00;21.83;;;2.90;99.90;;;;;;5035739;28;20472;-71
2022/02/28 08:15:03;;;;;;;21.90;20.10;;;2.90;99.90;;;;;;5011617;28;20457;-71
2022/02/28 08:17:30;;;;;;;22.93;21.13;;;3.00;99.90;;;;;;5004230;28;20480;-71
2022/02/28 08:19:58;;;;;;;23.23;21.47;;;3.00;99.90;;;;;;5005661;28;20463;-71
2022/02/28 08:22:25;;;;;;;24.17;22.17;;;3.10;99.90;;;;;;5003099;28;20516;-70
2022/02/28 08:24:52;;;;;;;24.50;22.40;;;3.20;99.90;;;;;;5004842;28;20496;-70
2022/02/28 08:27:19;;;;;;;25.17;22.90;;;3.30;99.90;;;;;;5004942;28;20472;-71
2022/02/28 08:29:46;;;;;;;25.73;23.53;;;3.50;99.90;;;;;;5006757;28;20467;-73
2022/02/28 08:32:13;;;;;;;28.40;24.10;;;3.50;99.90;;;;;;5005187;28;20472;-71
2022/02/28 08:34:40;;;;;;;25.23;23.10;;;3.60;99.90;;;;;;5005150;28;20462;-71
2022/02/28 08:37:08;;;;;;;23.60;21.50;;;3.70;99.90;;;;;;5005058;28;20515;-71
2022/02/28 08:39:35;;;;;;;23.93;21.90;;;3.90;99.90;;;;;;5004773;28;20461;-70
2022/02/28 08:42:02;;;;;;;23.33;21.43;;;4.00;99.90;;;;;;5005363;28;21208;-70
2022/02/28 08:44:29;;;;;;;23.30;21.37;;;4.10;99.90;;;;;;5005625;28;20835;-71
2022/02/28 08:46:56;;;;;;;23.27;21.57;;;4.20;99.90;;;;;;5004621;28;20476;-71
2022/02/28 08:49:24;;;;;;;24.70;22.47;;;4.20;99.90;;;;;;5004744;28;20594;-72
2022/02/28 08:51:51;;;;;;;23.83;22.03;;;4.30;99.90;;;;;;5004858;28;20478;-72
2022/02/28 08:54:19;;;;;;;23.73;21.90;;;4.40;99.90;;;;;;5004908;28;20467;-72
2022/02/28 08:56:46;;;;;;;24.27;22.27;;;4.40;99.90;;;;;;5003593;28;20456;-69
2022/02/28 08:59:13;;;;;;;23.87;21.67;;;4.60;99.90;;;;;;5004163;28;20484;-69
2022/02/28 09:01:40;;;;;;;23.30;21.50;;;4.70;99.90;;;;;;5004361;28;20476;-71
2022/02/28 09:04:06;;;;;;;23.77;21.87;;;4.90;99.90;;;;;;5003687;28;20842;-71
2022/02/28 09:06:33;;;;;;;23.07;21.03;;;5.00;99.90;;;;;;5004624;28;21027;-72
2022/02/28 09:09:00;;;;;;;24.17;22.27;;;5.10;99.90;;;;;;5004781;28;20469;-70
2022/02/28 09:11:28;;;;;;;25.17;22.70;;;5.20;99.90;;;;;;5003552;28;21249;-69
2022/02/28 09:13:55;;;;;;;24.47;22.10;;;5.30;99.90;;;;;;5005550;28;20507;-69
2022/02/28 09:16:22;;;;;;;23.90;22.00;;;5.40;99.90;;;;;;5005830;28;20460;-70
2022/02/28 09:18:49;;;;;;;25.20;22.93;;;5.60;99.90;;;;;;5006296;28;21175;-70
2022/02/28 09:21:16;;;;;;;23.00;21.30;;;5.70;99.90;;;;;;5007089;28;20464;-71
2022/02/28 09:23:43;;;;;;;23.73;22.03;;;5.80;99.90;;;;;;5008263;28;20501;-72
2022/02/28 09:26:10;;;;;;;24.37;21.90;;;5.80;99.90;;;;;;5010750;28;20457;-69
2022/02/28 09:28:38;;;;;;;26.73;21.53;;;5.70;99.90;;;;;;5009615;28;20468;-69
2022/02/28 09:31:05;;;;;;;25.30;23.07;;;5.80;99.90;;;;;;5009427;28;20461;-70
2022/02/28 09:33:32;;;;;;;23.70;21.80;;;6.00;99.90;;;;;;5008866;28;21057;-72
2022/02/28 09:36:00;;;;;;;25.40;23.07;;;6.20;99.90;;;;;;5009049;28;21671;-70
2022/02/28 09:38:27;;;;;;;23.53;21.57;;;6.30;99.90;;;;;;5008743;28;20463;-70
2022/02/28 09:40:54;;;;;;;23.10;21.37;;;6.40;99.90;;;;;;5008182;28;20473;-70
2022/02/28 09:43:21;;;;;;;24.27;22.10;;;6.50;99.90;;;;;;5008857;28;20521;-69
2022/02/28 09:45:51;;;;;;;24.77;22.63;;;6.60;99.90;;;;;;5008718;28;20820;-69
2022/02/28 09:48:19;;;;;;;24.93;22.90;;;6.70;99.90;;;;;;5006825;28;20509;-70
2022/02/28 09:50:46;;;;;;;23.77;21.93;;;6.80;99.90;;;;;;5008240;28;20842;-69
2022/02/28 09:53:12;;;;;;;24.60;22.50;;;6.70;99.90;;;;;;5009195;28;20470;-70
2022/02/28 09:55:39;;;;;;;24.60;22.33;;;6.80;99.90;;;;;;5010976;28;22418;-70
2022/02/28 09:58:06;;;;;;;24.73;22.73;;;6.90;99.90;;;;;;5008187;28;20469;-71
2022/02/28 10:00:33;;;;;;;24.83;22.60;;;7.00;99.90;;;;;;5005710;28;20488;-69
2022/02/28 10:03:03;;;;;;;23.40;21.63;;;7.00;99.90;;;;;;5007000;28;20504;-70
2022/02/28 10:05:30;;;;;;;24.70;22.60;;;7.00;99.90;;;;;;5006731;28;20483;-71
2022/02/28 10:07:59;;;;;;;24.63;22.63;;;6.90;99.90;;;;;;5007150;28;20454;-69
2022/02/28 10:10:28;;;;;;;25.50;23.33;;;7.00;99.90;;;;;;5007363;28;20664;-70
2022/02/28 10:12:55;;;;;;;23.70;21.70;;;7.00;99.90;;;;;;5007196;28;20517;-71
2022/02/28 10:15:24;;;;;;;23.70;21.97;;;7.10;99.90;;;;;;5008227;28;20539;-69
2022/02/28 10:17:54;;;;;;;23.90;22.00;;;7.20;99.90;;;;;;5007100;28;20910;-69
2022/02/28 10:20:25;;;;;;;23.30;21.50;;;7.50;99.90;;;;;;5006512;28;21133;-70
2022/02/28 10:22:54;;;;;;;23.10;21.40;;;8.10;99.90;;;;;;5007609;28;21277;-70
2022/02/28 10:25:30;;;;;;;23.50;21.80;;;8.60;99.90;;;;;;5008456;28;20484;-70
2022/02/28 10:28:15;;;;;;;23.37;21.57;;;9.10;99.90;;;;;;5007881;28;20472;-71
2022/02/28 10:30:55;;;;;;;23.63;21.90;;;9.20;99.90;;;;;;5006733;28;20525;-69
2022/02/28 10:33:28;;;;;;;23.80;21.93;;;9.80;99.90;;;;;;5007495;28;20465;-70
2022/02/28 10:36:10;;;;;;;24.33;22.30;;;10.20;99.50;;;;;;5501442;23;20516;-70
2022/02/28 10:38:41;;;;;;;24.77;22.30;;;11.00;98.70;;;;;;4966768;28;20468;-70
2022/02/28 10:41:20;;;;;;;24.17;22.07;;;11.10;97.60;;;;;;4967636;28;20462;-70
2022/02/28 10:43:48;;;;;;;24.10;22.20;;;11.40;96.80;;;;;;4967384;28;20489;-71
2022/02/28 10:46:17;;;;;;;23.13;21.33;;;12.10;96.30;;;;;;4967267;28;21016;-70
2022/02/28 10:48:55;;;;;;;23.77;21.87;;;12.10;94.70;;;;;;4966828;28;20781;-70
2022/02/28 10:51:23;;;;;;;23.30;21.60;;;12.10;94.80;;;;;;4966913;28;20470;-71
2022/02/28 10:54:06;;;;;;;23.07;21.20;;;12.30;93.20;;;;;;4968099;28;20470;-70
2022/02/28 10:56:46;;;;;;;23.63;21.30;;;12.50;93.40;;;;;;4968453;28;20473;-71
2022/02/28 10:59:13;;;;;;;23.83;21.83;;;12.80;92.80;;;;;;4968636;28;20538;-71
2022/02/28 11:01:41;;;;;;;23.97;22.17;;;12.70;93.40;;;;;;4967055;28;21245;-70
2022/02/28 11:04:09;;;;;;;23.90;22.00;;;12.60;91.20;;;;;;4982340;28;20497;-70
2022/02/28 11:06:39;;;;;;;23.53;21.63;;;12.70;91.10;;;;;;5002256;28;20500;-70
2022/02/28 11:09:07;;;;;;;25.17;21.10;;;12.50;90.50;;;;;;4996161;28;20470;-72
2022/02/28 11:11:34;;;;;;;22.27;20.37;;;12.90;91.50;;;;;;4996150;28;20474;-70
2022/02/28 11:14:01;;;;;;;22.07;20.37;;;13.40;90.90;;;;;;4973922;28;20486;-71
2022/02/28 11:16:30;;;;;;;23.30;21.60;;;13.20;88.70;;;;;;4967136;28;21117;-72
2022/02/28 11:18:57;;;;;;;22.17;20.67;;;13.20;90.30;;;;;;4967253;28;20466;-70
2022/02/28 11:21:24;;;;;;;23.33;21.30;;;13.60;89.50;;;;;;4967744;28;20489;-69
2022/02/28 11:23:53;;;;;;;23.17;21.07;;;14.00;88.90;;;;;;4967215;28;20998;-72
2022/02/28 11:26:20;;;;;;;23.03;21.43;;;14.30;86.90;;;;;;4967065;28;20467;-71
2022/02/28 11:28:47;;;;;;;23.90;22.20;;;14.00;86.00;;;;;;4967262;28;20471;-72
2022/02/28 11:31:16;;;;;;;23.77;21.97;;;13.90;84.80;;;;;;4967317;28;20471;-70
2022/02/28 11:34:00;;;;;;;23.10;21.10;;;14.40;85.30;;;;;;4965768;28;20476;-71
2022/02/28 11:36:27;;;;;;;24.20;22.13;;;14.30;83.00;;;;;;4969509;28;20504;-71
2022/02/28 11:39:11;;;;;;;23.30;21.60;;;14.20;84.80;;;;;;4964127;28;20493;-72
2022/02/28 11:41:38;;;;;;;22.10;20.37;;;15.10;83.80;;;;;;4966972;28;20478;-71
2022/02/28 11:44:08;;;;;;;22.63;20.77;;;15.50;83.00;;;;;;4966247;28;20500;-71
2022/02/28 11:46:38;;;;;;;26.60;20.87;;;15.80;82.00;;;;;;4967053;28;20470;-70
2022/02/28 11:49:06;;;;;;;21.50;20.10;;;16.40;79.70;;;;;;4966464;28;20474;-72
2022/02/28 11:51:35;;;;;;;20.87;19.57;;;16.30;79.10;;;;;;4966716;28;20568;-70
2022/02/28 11:54:06;;;;;;;21.93;20.13;;;15.90;77.50;;;;;;4966453;28;20477;-72
2022/02/28 11:56:44;;;;;;;21.93;20.00;;;16.60;79.50;;;;;;4967432;28;20581;-70
2022/02/28 11:59:17;;;;;;;21.23;19.63;;;16.30;71.30;;;;;;4973023;28;21415;-70
2022/02/28 12:01:51;;;;;;;22.83;21.03;;;16.30;75.90;;;;;;5003049;28;20717;-71
2022/02/28 12:04:21;;;;;;;22.23;20.53;;;16.40;74.90;;;;;;4997477;28;21394;-70
2022/02/28 12:06:53;;;;;;;22.27;20.30;;;16.50;71.40;;;;;;4979105;28;20469;-70
2022/02/28 12:09:48;;;;;;;22.80;20.80;;;15.90;69.90;;;;;;4966724;28;20997;-71
2022/02/28 12:12:23;;;;;;;22.70;20.50;;;16.30;70.50;;;;;;4965758;28;21138;-70
2022/02/28 12:15:22;;;;;;;21.90;20.00;;;16.50;68.60;;;;;;4965786;28;20466;-71
2022/02/28 12:18:10;;;;;;;22.50;20.90;;;16.80;71.10;;;;;;4964039;28;20482;-71
2022/02/28 12:21:07;;;;;;;22.70;21.20;;;17.10;68.90;;;;;;4965263;28;20487;-71
2022/02/28 12:23:46;;;;;;;22.17;20.63;;;17.10;67.70;;;;;;4965949;28;20497;-71
2022/02/28 12:26:14;;;;;;;22.40;20.70;;;17.20;67.60;;;;;;4966063;28;20473;-70
2022/02/28 12:28:55;;;;;;;22.30;20.27;;;17.50;65.30;;;;;;4966990;28;20466;-71
2022/02/28 12:31:40;;;;;;;21.10;19.70;;;17.00;63.60;;;;;;4966105;28;20469;-71
2022/02/28 12:34:12;;;;;;;21.93;20.20;;;17.70;59.40;;;;;;4965087;28;20494;-71
2022/02/28 12:36:44;;;;;;;22.63;20.60;;;17.40;57.90;;;;;;4966501;28;20488;-71
2022/02/28 12:39:12;;;;;;;21.77;20.27;;;17.10;59.70;;;;;;4965553;28;20510;-71
2022/02/28 12:41:43;;;;;;;21.90;20.33;;;16.70;57.70;;;;;;4966310;28;20454;-71